sensor_id;sensor_type;location;lat;lon;timestamp;P1;durP1;ratioP1;P2;durP2;ratioP2
11004;SDS011;5555;59.622;16.556;2022-08-19T00:00:25;26.57;;;24.13;;
11004;SDS011;5555;59.622;16.556;2022-08-19T00:02:52;26.37;;;23.97;;
11004;SDS011;5555;59.622;16.556;2022-08-19T00:05:19;28.47;;;25.77;;
11004;SDS011;5555;59.622;16.556;2022-08-19T00:07:46;28.70;;;25.87;;
11004;SDS011;5555;59.622;16.556;2022-08-19T00:10:13;31.97;;;28.67;;
11004;SDS011;5555;59.622;16.556;2022-08-19T00:12:40;31.13;;;27.80;;
11004;SDS011;5555;59.622;16.556;2022-08-19T00:15:06;31.07;;;28.00;;
11004;SDS011;5555;59.622;16.556;2022-08-19T00:17:36;31.17;;;27.97;;
11004;SDS011;5555;59.622;16.556;2022-08-19T00:20:07;30.63;;;27.70;;
11004;SDS011;5555;59.622;16.556;2022-08-19T00:22:35;32.47;;;29.07;;
11004;SDS011;5555;59.622;16.556;2022-08-19T00:25:02;34.80;;;31.17;;
11004;SDS011;5555;59.622;16.556;2022-08-19T00:27:29;34.67;;;31.07;;
11004;SDS011;5555;59.622;16.556;2022-08-19T00:29:54;34.13;;;30.27;;
11004;SDS011;5555;59.622;16.556;2022-08-19T00:32:20;37.60;;;31.77;;
11004;SDS011;5555;59.622;16.556;2022-08-19T00:34:46;37.90;;;31.73;;
11004;SDS011;5555;59.622;16.556;2022-08-19T00:37:12;36.23;;;32.37;;
11004;SDS011;5555;59.622;16.556;2022-08-19T00:39:37;37.27;;;33.23;;
11004;SDS011;5555;59.622;16.556;2022-08-19T00:42:03;39.83;;;32.93;;
11004;SDS011;5555;59.622;16.556;2022-08-19T00:44:31;39.73;;;34.03;;
11004;SDS011;5555;59.622;16.556;2022-08-19T00:46:57;39.60;;;33.33;;
11004;SDS011;5555;59.622;16.556;2022-08-19T00:51:53;45.57;;;36.23;;
11004;SDS011;5555;59.622;16.556;2022-08-19T00:54:24;43.50;;;34.97;;
11004;SDS011;5555;59.622;16.556;2022-08-19T00:56:51;46.73;;;36.23;;
11004;SDS011;5555;59.622;16.556;2022-08-19T00:59:18;44.97;;;36.17;;
11004;SDS011;5555;59.622;16.556;2022-08-19T01:01:45;45.83;;;37.30;;
11004;SDS011;5555;59.622;16.556;2022-08-19T01:04:11;52.37;;;36.93;;
11004;SDS011;5555;59.622;16.556;2022-08-19T01:06:38;47.43;;;37.27;;
11004;SDS011;5555;59.622;16.556;2022-08-19T01:09:06;50.87;;;38.00;;
11004;SDS011;5555;59.622;16.556;2022-08-19T01:11:34;56.10;;;40.17;;
11004;SDS011;5555;59.622;16.556;2022-08-19T01:14:02;55.00;;;39.63;;
11004;SDS011;5555;59.622;16.556;2022-08-19T01:16:29;59.00;;;40.40;;
11004;SDS011;5555;59.622;16.556;2022-08-19T01:18:56;59.17;;;41.60;;
11004;SDS011;5555;59.622;16.556;2022-08-19T01:22:06;50.37;;;39.63;;
11004;SDS011;5555;59.622;16.556;2022-08-19T01:24:20;54.50;;;39.87;;
11004;SDS011;5555;59.622;16.556;2022-08-19T01:26:46;57.13;;;41.67;;
11004;SDS011;5555;59.622;16.556;2022-08-19T01:29:12;59.37;;;40.80;;
11004;SDS011;5555;59.622;16.556;2022-08-19T01:31:39;61.83;;;42.73;;
11004;SDS011;5555;59.622;16.556;2022-08-19T01:34:05;56.70;;;40.90;;
11004;SDS011;5555;59.622;16.556;2022-08-19T01:36:39;54.20;;;40.20;;
11004;SDS011;5555;59.622;16.556;2022-08-19T01:39:09;65.50;;;42.30;;
11004;SDS011;5555;59.622;16.556;2022-08-19T01:41:36;58.90;;;42.60;;
11004;SDS011;5555;59.622;16.556;2022-08-19T01:44:03;60.80;;;41.20;;
11004;SDS011;5555;59.622;16.556;2022-08-19T01:46:31;58.33;;;39.40;;
11004;SDS011;5555;59.622;16.556;2022-08-19T01:48:57;67.03;;;41.40;;
11004;SDS011;5555;59.622;16.556;2022-08-19T01:51:23;63.27;;;40.60;;
11004;SDS011;5555;59.622;16.556;2022-08-19T01:53:49;61.43;;;40.23;;
11004;SDS011;5555;59.622;16.556;2022-08-19T01:56:16;56.33;;;41.13;;
11004;SDS011;5555;59.622;16.556;2022-08-19T01:58:44;62.80;;;42.03;;
11004;SDS011;5555;59.622;16.556;2022-08-19T02:01:18;70.50;;;42.47;;
11004;SDS011;5555;59.622;16.556;2022-08-19T02:03:44;68.57;;;43.07;;
11004;SDS011;5555;59.622;16.556;2022-08-19T02:06:11;77.40;;;44.93;;
11004;SDS011;5555;59.622;16.556;2022-08-19T02:08:37;79.60;;;46.33;;
11004;SDS011;5555;59.622;16.556;2022-08-19T02:11:04;79.60;;;45.03;;
11004;SDS011;5555;59.622;16.556;2022-08-19T02:13:30;75.93;;;43.83;;
11004;SDS011;5555;59.622;16.556;2022-08-19T02:15:56;78.20;;;44.27;;
11004;SDS011;5555;59.622;16.556;2022-08-19T02:18:22;75.30;;;45.00;;
11004;SDS011;5555;59.622;16.556;2022-08-19T02:20:48;74.97;;;46.77;;
11004;SDS011;5555;59.622;16.556;2022-08-19T02:23:15;83.67;;;47.73;;
11004;SDS011;5555;59.622;16.556;2022-08-19T02:25:42;94.60;;;48.70;;
11004;SDS011;5555;59.622;16.556;2022-08-19T02:28:09;89.23;;;47.10;;
11004;SDS011;5555;59.622;16.556;2022-08-19T02:30:36;64.97;;;45.70;;
11004;SDS011;5555;59.622;16.556;2022-08-19T02:33:04;89.20;;;47.93;;
11004;SDS011;5555;59.622;16.556;2022-08-19T02:35:30;88.10;;;48.90;;
11004;SDS011;5555;59.622;16.556;2022-08-19T02:37:56;95.20;;;49.37;;
11004;SDS011;5555;59.622;16.556;2022-08-19T02:40:40;70.07;;;45.47;;
11004;SDS011;5555;59.622;16.556;2022-08-19T02:43:14;73.30;;;46.13;;
11004;SDS011;5555;59.622;16.556;2022-08-19T02:45:40;98.07;;;50.03;;
11004;SDS011;5555;59.622;16.556;2022-08-19T02:48:06;86.07;;;47.63;;
11004;SDS011;5555;59.622;16.556;2022-08-19T02:50:32;95.50;;;49.30;;
11004;SDS011;5555;59.622;16.556;2022-08-19T02:52:58;83.40;;;47.07;;
11004;SDS011;5555;59.622;16.556;2022-08-19T02:55:24;99.70;;;49.30;;
11004;SDS011;5555;59.622;16.556;2022-08-19T02:57:49;99.80;;;49.33;;
11004;SDS011;5555;59.622;16.556;2022-08-19T03:00:15;80.00;;;46.27;;
11004;SDS011;5555;59.622;16.556;2022-08-19T03:02:41;86.43;;;47.33;;
11004;SDS011;5555;59.622;16.556;2022-08-19T03:05:07;73.20;;;44.73;;
11004;SDS011;5555;59.622;16.556;2022-08-19T03:07:42;64.33;;;43.00;;
11004;SDS011;5555;59.622;16.556;2022-08-19T03:10:07;89.47;;;49.20;;
11004;SDS011;5555;59.622;16.556;2022-08-19T03:12:37;84.63;;;47.07;;
11004;SDS011;5555;59.622;16.556;2022-08-19T03:15:07;83.23;;;47.83;;
11004;SDS011;5555;59.622;16.556;2022-08-19T03:17:34;66.97;;;45.53;;
11004;SDS011;5555;59.622;16.556;2022-08-19T03:20:00;78.83;;;48.30;;
11004;SDS011;5555;59.622;16.556;2022-08-19T03:22:26;83.73;;;46.90;;
11004;SDS011;5555;59.622;16.556;2022-08-19T03:24:51;77.97;;;46.67;;
11004;SDS011;5555;59.622;16.556;2022-08-19T03:27:18;79.53;;;46.00;;
11004;SDS011;5555;59.622;16.556;2022-08-19T03:29:44;79.03;;;47.33;;
11004;SDS011;5555;59.622;16.556;2022-08-19T03:32:10;76.77;;;46.27;;
11004;SDS011;5555;59.622;16.556;2022-08-19T03:34:37;74.57;;;45.90;;
11004;SDS011;5555;59.622;16.556;2022-08-19T03:37:04;74.70;;;45.63;;
11004;SDS011;5555;59.622;16.556;2022-08-19T03:39:32;60.70;;;42.90;;
11004;SDS011;5555;59.622;16.556;2022-08-19T03:42:00;58.90;;;44.10;;
11004;SDS011;5555;59.622;16.556;2022-08-19T03:44:28;64.90;;;43.80;;
11004;SDS011;5555;59.622;16.556;2022-08-19T03:46:55;61.93;;;43.23;;
11004;SDS011;5555;59.622;16.556;2022-08-19T03:49:24;56.53;;;42.20;;
11004;SDS011;5555;59.622;16.556;2022-08-19T03:51:52;55.50;;;40.67;;
11004;SDS011;5555;59.622;16.556;2022-08-19T03:54:20;54.17;;;41.83;;
11004;SDS011;5555;59.622;16.556;2022-08-19T03:56:51;56.93;;;41.57;;
11004;SDS011;5555;59.622;16.556;2022-08-19T03:59:29;50.43;;;40.97;;
11004;SDS011;5555;59.622;16.556;2022-08-19T04:01:57;54.80;;;41.00;;
11004;SDS011;5555;59.622;16.556;2022-08-19T04:04:24;49.87;;;40.33;;
11004;SDS011;5555;59.622;16.556;2022-08-19T04:06:50;51.53;;;40.23;;
11004;SDS011;5555;59.622;16.556;2022-08-19T04:09:17;48.13;;;40.00;;
11004;SDS011;5555;59.622;16.556;2022-08-19T04:11:45;44.27;;;38.40;;
11004;SDS011;5555;59.622;16.556;2022-08-19T04:14:18;50.03;;;39.60;;
11004;SDS011;5555;59.622;16.556;2022-08-19T04:16:45;49.70;;;40.40;;
11004;SDS011;5555;59.622;16.556;2022-08-19T04:19:13;47.10;;;38.23;;
11004;SDS011;5555;59.622;16.556;2022-08-19T04:21:39;47.30;;;38.60;;
11004;SDS011;5555;59.622;16.556;2022-08-19T04:24:05;48.57;;;39.67;;
11004;SDS011;5555;59.622;16.556;2022-08-19T04:26:33;43.57;;;38.00;;
11004;SDS011;5555;59.622;16.556;2022-08-19T04:29:00;39.93;;;35.80;;
11004;SDS011;5555;59.622;16.556;2022-08-19T04:31:29;40.40;;;36.03;;
11004;SDS011;5555;59.622;16.556;2022-08-19T04:34:00;40.40;;;36.30;;
11004;SDS011;5555;59.622;16.556;2022-08-19T04:36:29;40.33;;;35.73;;
11004;SDS011;5555;59.622;16.556;2022-08-19T04:38:58;37.73;;;33.67;;
11004;SDS011;5555;59.622;16.556;2022-08-19T04:41:25;37.37;;;33.63;;
11004;SDS011;5555;59.622;16.556;2022-08-19T04:44:10;37.03;;;33.40;;
11004;SDS011;5555;59.622;16.556;2022-08-19T04:46:37;36.90;;;33.23;;
11004;SDS011;5555;59.622;16.556;2022-08-19T04:49:04;36.57;;;32.70;;
11004;SDS011;5555;59.622;16.556;2022-08-19T04:51:31;37.00;;;32.20;;
11004;SDS011;5555;59.622;16.556;2022-08-19T04:53:58;37.10;;;33.33;;
11004;SDS011;5555;59.622;16.556;2022-08-19T04:56:25;37.60;;;33.93;;
11004;SDS011;5555;59.622;16.556;2022-08-19T04:58:51;34.60;;;31.20;;
11004;SDS011;5555;59.622;16.556;2022-08-19T05:01:23;35.33;;;31.93;;
11004;SDS011;5555;59.622;16.556;2022-08-19T05:03:50;34.27;;;30.87;;
11004;SDS011;5555;59.622;16.556;2022-08-19T05:06:17;36.07;;;32.30;;
11004;SDS011;5555;59.622;16.556;2022-08-19T05:08:44;33.70;;;30.53;;
11004;SDS011;5555;59.622;16.556;2022-08-19T05:11:12;34.03;;;30.70;;
11004;SDS011;5555;59.622;16.556;2022-08-19T05:13:46;35.07;;;31.33;;
11004;SDS011;5555;59.622;16.556;2022-08-19T05:16:13;36.27;;;32.80;;
11004;SDS011;5555;59.622;16.556;2022-08-19T05:18:40;36.03;;;32.43;;
11004;SDS011;5555;59.622;16.556;2022-08-19T05:21:25;32.17;;;29.17;;
11004;SDS011;5555;59.622;16.556;2022-08-19T05:24:11;33.00;;;29.80;;
11004;SDS011;5555;59.622;16.556;2022-08-19T05:26:38;34.00;;;29.80;;
11004;SDS011;5555;59.622;16.556;2022-08-19T05:29:05;32.37;;;29.27;;
11004;SDS011;5555;59.622;16.556;2022-08-19T05:31:34;32.00;;;28.77;;
11004;SDS011;5555;59.622;16.556;2022-08-19T05:34:01;30.63;;;27.63;;
11004;SDS011;5555;59.622;16.556;2022-08-19T05:36:29;30.57;;;27.70;;
11004;SDS011;5555;59.622;16.556;2022-08-19T05:38:59;31.83;;;28.70;;
11004;SDS011;5555;59.622;16.556;2022-08-19T05:41:25;30.73;;;27.67;;
11004;SDS011;5555;59.622;16.556;2022-08-19T05:44:00;29.47;;;26.67;;
11004;SDS011;5555;59.622;16.556;2022-08-19T05:46:28;30.43;;;27.33;;
11004;SDS011;5555;59.622;16.556;2022-08-19T05:48:54;29.70;;;26.63;;
11004;SDS011;5555;59.622;16.556;2022-08-19T05:51:21;29.90;;;27.00;;
11004;SDS011;5555;59.622;16.556;2022-08-19T05:53:48;27.43;;;25.03;;
11004;SDS011;5555;59.622;16.556;2022-08-19T05:56:14;27.17;;;24.43;;
11004;SDS011;5555;59.622;16.556;2022-08-19T05:58:41;27.57;;;24.83;;
11004;SDS011;5555;59.622;16.556;2022-08-19T06:01:10;26.37;;;23.83;;
11004;SDS011;5555;59.622;16.556;2022-08-19T06:03:38;26.93;;;24.33;;
11004;SDS011;5555;59.622;16.556;2022-08-19T06:06:05;24.23;;;22.23;;
11004;SDS011;5555;59.622;16.556;2022-08-19T06:08:32;24.43;;;22.17;;
11004;SDS011;5555;59.622;16.556;2022-08-19T06:10:58;24.63;;;22.40;;
11004;SDS011;5555;59.622;16.556;2022-08-19T06:13:38;23.63;;;21.20;;
11004;SDS011;5555;59.622;16.556;2022-08-19T06:16:03;22.60;;;20.10;;
11004;SDS011;5555;59.622;16.556;2022-08-19T06:18:29;22.90;;;20.47;;
11004;SDS011;5555;59.622;16.556;2022-08-19T06:20:55;21.13;;;19.23;;
11004;SDS011;5555;59.622;16.556;2022-08-19T06:23:21;20.63;;;18.63;;
11004;SDS011;5555;59.622;16.556;2022-08-19T06:25:46;21.60;;;19.50;;
11004;SDS011;5555;59.622;16.556;2022-08-19T06:28:12;20.67;;;18.73;;
11004;SDS011;5555;59.622;16.556;2022-08-19T06:30:38;20.27;;;18.57;;
11004;SDS011;5555;59.622;16.556;2022-08-19T06:33:03;20.37;;;18.57;;
11004;SDS011;5555;59.622;16.556;2022-08-19T06:35:29;21.33;;;19.30;;
11004;SDS011;5555;59.622;16.556;2022-08-19T06:37:55;21.00;;;19.00;;
11004;SDS011;5555;59.622;16.556;2022-08-19T06:40:21;20.03;;;18.33;;
11004;SDS011;5555;59.622;16.556;2022-08-19T06:42:46;21.07;;;19.07;;
11004;SDS011;5555;59.622;16.556;2022-08-19T06:45:12;21.70;;;19.60;;
11004;SDS011;5555;59.622;16.556;2022-08-19T06:47:38;19.10;;;17.37;;
11004;SDS011;5555;59.622;16.556;2022-08-19T06:50:03;20.20;;;18.20;;
11004;SDS011;5555;59.622;16.556;2022-08-19T06:52:30;19.90;;;18.00;;
11004;SDS011;5555;59.622;16.556;2022-08-19T06:54:57;18.70;;;17.07;;
11004;SDS011;5555;59.622;16.556;2022-08-19T06:57:24;17.90;;;16.23;;
11004;SDS011;5555;59.622;16.556;2022-08-19T06:59:50;18.83;;;16.53;;
11004;SDS011;5555;59.622;16.556;2022-08-19T07:02:16;19.43;;;17.67;;
11004;SDS011;5555;59.622;16.556;2022-08-19T07:04:42;19.03;;;17.20;;
11004;SDS011;5555;59.622;16.556;2022-08-19T07:07:09;19.73;;;17.83;;
11004;SDS011;5555;59.622;16.556;2022-08-19T07:09:38;19.40;;;17.00;;
11004;SDS011;5555;59.622;16.556;2022-08-19T07:12:06;19.43;;;17.40;;
11004;SDS011;5555;59.622;16.556;2022-08-19T07:14:34;17.70;;;16.10;;
11004;SDS011;5555;59.622;16.556;2022-08-19T07:17:02;16.90;;;15.37;;
11004;SDS011;5555;59.622;16.556;2022-08-19T07:19:31;17.87;;;16.20;;
11004;SDS011;5555;59.622;16.556;2022-08-19T07:21:57;17.67;;;16.10;;
11004;SDS011;5555;59.622;16.556;2022-08-19T07:24:26;17.90;;;16.10;;
11004;SDS011;5555;59.622;16.556;2022-08-19T07:26:54;16.83;;;15.23;;
11004;SDS011;5555;59.622;16.556;2022-08-19T07:29:23;18.27;;;16.40;;
11004;SDS011;5555;59.622;16.556;2022-08-19T07:31:49;17.33;;;15.77;;
11004;SDS011;5555;59.622;16.556;2022-08-19T07:34:16;17.23;;;15.63;;
11004;SDS011;5555;59.622;16.556;2022-08-19T07:36:42;17.73;;;16.03;;
11004;SDS011;5555;59.622;16.556;2022-08-19T07:39:13;18.53;;;16.93;;
11004;SDS011;5555;59.622;16.556;2022-08-19T07:41:41;18.33;;;16.50;;
11004;SDS011;5555;59.622;16.556;2022-08-19T07:44:08;18.80;;;16.67;;
11004;SDS011;5555;59.622;16.556;2022-08-19T07:46:35;17.97;;;16.37;;
11004;SDS011;5555;59.622;16.556;2022-08-19T07:49:03;18.13;;;16.33;;
11004;SDS011;5555;59.622;16.556;2022-08-19T07:51:29;17.37;;;15.80;;
11004;SDS011;5555;59.622;16.556;2022-08-19T07:53:55;17.17;;;15.67;;
11004;SDS011;5555;59.622;16.556;2022-08-19T07:56:22;16.67;;;15.23;;
11004;SDS011;5555;59.622;16.556;2022-08-19T07:58:48;16.50;;;14.67;;
11004;SDS011;5555;59.622;16.556;2022-08-19T08:01:18;17.47;;;15.87;;
11004;SDS011;5555;59.622;16.556;2022-08-19T08:03:47;17.40;;;14.90;;
11004;SDS011;5555;59.622;16.556;2022-08-19T08:06:33;16.50;;;14.80;;
11004;SDS011;5555;59.622;16.556;2022-08-19T08:09:20;15.53;;;14.03;;
11004;SDS011;5555;59.622;16.556;2022-08-19T08:11:59;16.23;;;14.63;;
11004;SDS011;5555;59.622;16.556;2022-08-19T08:14:39;16.20;;;14.80;;
11004;SDS011;5555;59.622;16.556;2022-08-19T08:17:09;16.23;;;14.43;;
11004;SDS011;5555;59.622;16.556;2022-08-19T08:19:35;15.90;;;14.47;;
11004;SDS011;5555;59.622;16.556;2022-08-19T08:22:02;14.90;;;13.50;;
11004;SDS011;5555;59.622;16.556;2022-08-19T08:24:29;15.73;;;14.00;;
11004;SDS011;5555;59.622;16.556;2022-08-19T08:26:56;15.30;;;13.70;;
11004;SDS011;5555;59.622;16.556;2022-08-19T08:29:24;15.07;;;13.70;;
11004;SDS011;5555;59.622;16.556;2022-08-19T08:31:52;15.50;;;14.00;;
11004;SDS011;5555;59.622;16.556;2022-08-19T08:34:18;15.70;;;13.93;;
11004;SDS011;5555;59.622;16.556;2022-08-19T08:36:45;14.80;;;13.60;;
11004;SDS011;5555;59.622;16.556;2022-08-19T08:39:12;15.13;;;13.73;;
11004;SDS011;5555;59.622;16.556;2022-08-19T08:41:49;15.07;;;13.43;;
11004;SDS011;5555;59.622;16.556;2022-08-19T08:44:41;13.63;;;12.43;;
11004;SDS011;5555;59.622;16.556;2022-08-19T08:47:15;13.93;;;12.47;;
11004;SDS011;5555;59.622;16.556;2022-08-19T08:49:57;13.23;;;11.93;;
11004;SDS011;5555;59.622;16.556;2022-08-19T08:52:33;13.90;;;12.57;;
11004;SDS011;5555;59.622;16.556;2022-08-19T08:55:12;13.50;;;12.30;;
11004;SDS011;5555;59.622;16.556;2022-08-19T09:00:30;12.67;;;11.37;;
11004;SDS011;5555;59.622;16.556;2022-08-19T09:03:02;13.00;;;11.70;;
11004;SDS011;5555;59.622;16.556;2022-08-19T09:05:42;13.43;;;12.13;;
11004;SDS011;5555;59.622;16.556;2022-08-19T09:11:19;14.77;;;11.47;;
11004;SDS011;5555;59.622;16.556;2022-08-19T09:14:04;12.13;;;10.90;;
11004;SDS011;5555;59.622;16.556;2022-08-19T09:16:43;11.60;;;10.70;;
11004;SDS011;5555;59.622;16.556;2022-08-19T09:19:09;13.20;;;10.40;;
11004;SDS011;5555;59.622;16.556;2022-08-19T09:21:35;16.97;;;11.43;;
11004;SDS011;5555;59.622;16.556;2022-08-19T09:24:03;12.20;;;10.93;;
11004;SDS011;5555;59.622;16.556;2022-08-19T09:26:30;12.83;;;11.63;;
11004;SDS011;5555;59.622;16.556;2022-08-19T09:28:57;13.03;;;11.80;;
11004;SDS011;5555;59.622;16.556;2022-08-19T09:31:25;12.50;;;10.97;;
11004;SDS011;5555;59.622;16.556;2022-08-19T09:33:52;14.73;;;11.20;;
11004;SDS011;5555;59.622;16.556;2022-08-19T09:36:22;12.07;;;10.93;;
11004;SDS011;5555;59.622;16.556;2022-08-19T09:38:50;12.37;;;10.93;;
11004;SDS011;5555;59.622;16.556;2022-08-19T09:41:17;11.67;;;10.23;;
11004;SDS011;5555;59.622;16.556;2022-08-19T09:43:46;12.05;;;10.80;;
11004;SDS011;5555;59.622;16.556;2022-08-19T09:46:13;10.73;;;9.70;;
11004;SDS011;5555;59.622;16.556;2022-08-19T09:48:41;11.30;;;10.20;;
11004;SDS011;5555;59.622;16.556;2022-08-19T09:51:08;11.60;;;10.53;;
11004;SDS011;5555;59.622;16.556;2022-08-19T09:53:37;11.73;;;10.50;;
11004;SDS011;5555;59.622;16.556;2022-08-19T09:56:05;10.43;;;9.50;;
11004;SDS011;5555;59.622;16.556;2022-08-19T09:58:31;11.50;;;10.40;;
11004;SDS011;5555;59.622;16.556;2022-08-19T10:00:58;12.57;;;11.00;;
11004;SDS011;5555;59.622;16.556;2022-08-19T10:03:25;12.25;;;11.23;;
11004;SDS011;5555;59.622;16.556;2022-08-19T10:05:52;11.20;;;10.30;;
11004;SDS011;5555;59.622;16.556;2022-08-19T10:08:19;11.35;;;10.45;;
11004;SDS011;5555;59.622;16.556;2022-08-19T10:10:46;12.00;;;10.82;;
11004;SDS011;5555;59.622;16.556;2022-08-19T10:13:14;12.93;;;10.80;;
11004;SDS011;5555;59.622;16.556;2022-08-19T10:15:41;11.27;;;9.82;;
11004;SDS011;5555;59.622;16.556;2022-08-19T10:18:07;10.93;;;9.80;;
11004;SDS011;5555;59.622;16.556;2022-08-19T10:20:33;12.23;;;10.00;;
11004;SDS011;5555;59.622;16.556;2022-08-19T10:23:01;12.65;;;9.20;;
11004;SDS011;5555;59.622;16.556;2022-08-19T10:25:28;10.27;;;9.35;;
11004;SDS011;5555;59.622;16.556;2022-08-19T10:27:54;10.48;;;9.40;;
11004;SDS011;5555;59.622;16.556;2022-08-19T10:30:19;11.30;;;10.15;;
11004;SDS011;5555;59.622;16.556;2022-08-19T10:32:46;11.30;;;9.68;;
11004;SDS011;5555;59.622;16.556;2022-08-19T10:35:12;10.70;;;9.75;;
11004;SDS011;5555;59.622;16.556;2022-08-19T10:37:39;11.00;;;9.82;;
11004;SDS011;5555;59.622;16.556;2022-08-19T10:40:05;10.48;;;9.35;;
11004;SDS011;5555;59.622;16.556;2022-08-19T10:42:33;10.95;;;9.80;;
11004;SDS011;5555;59.622;16.556;2022-08-19T10:45:00;10.93;;;9.52;;
11004;SDS011;5555;59.622;16.556;2022-08-19T10:47:26;10.80;;;9.05;;
11004;SDS011;5555;59.622;16.556;2022-08-19T10:49:52;9.55;;;8.65;;
11004;SDS011;5555;59.622;16.556;2022-08-19T10:52:38;9.82;;;8.73;;
11004;SDS011;5555;59.622;16.556;2022-08-19T10:55:08;10.40;;;9.07;;
11004;SDS011;5555;59.622;16.556;2022-08-19T10:57:53;10.75;;;9.75;;
11004;SDS011;5555;59.622;16.556;2022-08-19T11:00:21;9.93;;;8.98;;
11004;SDS011;5555;59.622;16.556;2022-08-19T11:02:48;10.52;;;9.43;;
11004;SDS011;5555;59.622;16.556;2022-08-19T11:05:14;9.63;;;8.75;;
11004;SDS011;5555;59.622;16.556;2022-08-19T11:07:42;9.70;;;8.70;;
11004;SDS011;5555;59.622;16.556;2022-08-19T11:10:10;11.35;;;8.45;;
11004;SDS011;5555;59.622;16.556;2022-08-19T11:12:38;13.70;;;8.48;;
11004;SDS011;5555;59.622;16.556;2022-08-19T11:15:05;9.82;;;8.75;;
11004;SDS011;5555;59.622;16.556;2022-08-19T11:17:36;9.20;;;8.30;;
11004;SDS011;5555;59.622;16.556;2022-08-19T11:20:09;9.70;;;8.18;;
11004;SDS011;5555;59.622;16.556;2022-08-19T11:22:39;9.50;;;8.57;;
11004;SDS011;5555;59.622;16.556;2022-08-19T11:25:05;8.73;;;7.70;;
11004;SDS011;5555;59.622;16.556;2022-08-19T11:27:32;10.70;;;7.30;;
11004;SDS011;5555;59.622;16.556;2022-08-19T11:29:58;8.13;;;7.32;;
11004;SDS011;5555;59.622;16.556;2022-08-19T11:32:25;8.07;;;7.28;;
11004;SDS011;5555;59.622;16.556;2022-08-19T11:34:52;10.10;;;7.20;;
11004;SDS011;5555;59.622;16.556;2022-08-19T11:37:18;8.73;;;7.25;;
11004;SDS011;5555;59.622;16.556;2022-08-19T11:39:43;11.00;;;7.18;;
11004;SDS011;5555;59.622;16.556;2022-08-19T11:42:09;8.30;;;6.75;;
11004;SDS011;5555;59.622;16.556;2022-08-19T11:44:53;7.50;;;6.80;;
11004;SDS011;5555;59.622;16.556;2022-08-19T11:47:19;8.00;;;7.00;;
11004;SDS011;5555;59.622;16.556;2022-08-19T11:49:46;10.30;;;6.78;;
11004;SDS011;5555;59.622;16.556;2022-08-19T11:52:12;10.82;;;6.72;;
11004;SDS011;5555;59.622;16.556;2022-08-19T11:54:38;9.18;;;6.72;;
11004;SDS011;5555;59.622;16.556;2022-08-19T11:57:03;7.50;;;6.30;;
11004;SDS011;5555;59.622;16.556;2022-08-19T11:59:29;7.88;;;6.40;;
11004;SDS011;5555;59.622;16.556;2022-08-19T12:01:55;6.65;;;5.93;;
11004;SDS011;5555;59.622;16.556;2022-08-19T12:04:21;7.07;;;6.32;;
11004;SDS011;5555;59.622;16.556;2022-08-19T12:06:47;8.35;;;5.53;;
11004;SDS011;5555;59.622;16.556;2022-08-19T12:09:15;7.20;;;5.47;;
11004;SDS011;5555;59.622;16.556;2022-08-19T12:11:42;12.50;;;6.03;;
11004;SDS011;5555;59.622;16.556;2022-08-19T12:14:11;9.25;;;5.28;;
11004;SDS011;5555;59.622;16.556;2022-08-19T12:16:39;9.07;;;5.50;;
11004;SDS011;5555;59.622;16.556;2022-08-19T12:19:05;6.15;;;5.13;;
11004;SDS011;5555;59.622;16.556;2022-08-19T12:21:32;8.10;;;5.68;;
11004;SDS011;5555;59.622;16.556;2022-08-19T12:23:59;6.28;;;4.65;;
11004;SDS011;5555;59.622;16.556;2022-08-19T12:26:27;6.97;;;5.40;;
11004;SDS011;5555;59.622;16.556;2022-08-19T12:28:54;7.03;;;4.78;;
11004;SDS011;5555;59.622;16.556;2022-08-19T12:31:20;6.80;;;5.20;;
11004;SDS011;5555;59.622;16.556;2022-08-19T12:33:46;7.40;;;5.15;;
11004;SDS011;5555;59.622;16.556;2022-08-19T12:36:13;8.73;;;5.80;;
11004;SDS011;5555;59.622;16.556;2022-08-19T12:38:41;6.13;;;5.40;;
11004;SDS011;5555;59.622;16.556;2022-08-19T12:41:09;6.40;;;4.93;;
11004;SDS011;5555;59.622;16.556;2022-08-19T12:43:37;8.25;;;5.53;;
11004;SDS011;5555;59.622;16.556;2022-08-19T12:46:04;7.88;;;5.13;;
11004;SDS011;5555;59.622;16.556;2022-08-19T12:48:30;7.30;;;4.97;;
11004;SDS011;5555;59.622;16.556;2022-08-19T12:50:57;6.10;;;5.00;;
11004;SDS011;5555;59.622;16.556;2022-08-19T12:53:23;8.00;;;5.07;;
11004;SDS011;5555;59.622;16.556;2022-08-19T12:55:58;6.70;;;5.28;;
11004;SDS011;5555;59.622;16.556;2022-08-19T12:58:24;9.52;;;5.32;;
11004;SDS011;5555;59.622;16.556;2022-08-19T13:00:51;8.60;;;5.20;;
11004;SDS011;5555;59.622;16.556;2022-08-19T13:03:16;6.90;;;5.05;;
11004;SDS011;5555;59.622;16.556;2022-08-19T13:05:42;5.70;;;5.00;;
11004;SDS011;5555;59.622;16.556;2022-08-19T13:08:07;10.20;;;4.97;;
11004;SDS011;5555;59.622;16.556;2022-08-19T13:10:34;7.90;;;5.32;;
11004;SDS011;5555;59.622;16.556;2022-08-19T13:13:04;7.15;;;5.05;;
11004;SDS011;5555;59.622;16.556;2022-08-19T13:15:36;5.70;;;4.32;;
11004;SDS011;5555;59.622;16.556;2022-08-19T13:18:04;8.85;;;4.85;;
11004;SDS011;5555;59.622;16.556;2022-08-19T13:20:31;6.35;;;4.22;;
11004;SDS011;5555;59.622;16.556;2022-08-19T13:22:57;4.78;;;4.32;;
11004;SDS011;5555;59.622;16.556;2022-08-19T13:25:23;5.47;;;4.45;;
11004;SDS011;5555;59.622;16.556;2022-08-19T13:27:50;6.13;;;4.93;;
11004;SDS011;5555;59.622;16.556;2022-08-19T13:30:16;7.05;;;4.45;;
11004;SDS011;5555;59.622;16.556;2022-08-19T13:33:02;6.50;;;4.72;;
11004;SDS011;5555;59.622;16.556;2022-08-19T13:35:35;6.38;;;4.35;;
11004;SDS011;5555;59.622;16.556;2022-08-19T13:38:05;5.93;;;4.57;;
11004;SDS011;5555;59.622;16.556;2022-08-19T13:40:32;5.15;;;4.25;;
11004;SDS011;5555;59.622;16.556;2022-08-19T13:42:59;5.03;;;4.50;;
11004;SDS011;5555;59.622;16.556;2022-08-19T13:45:26;7.00;;;4.78;;
11004;SDS011;5555;59.622;16.556;2022-08-19T13:47:54;4.93;;;4.53;;
11004;SDS011;5555;59.622;16.556;2022-08-19T13:50:22;6.60;;;4.20;;
11004;SDS011;5555;59.622;16.556;2022-08-19T13:52:52;5.38;;;4.88;;
11004;SDS011;5555;59.622;16.556;2022-08-19T13:55:19;6.32;;;4.32;;
11004;SDS011;5555;59.622;16.556;2022-08-19T13:57:45;6.80;;;4.45;;
11004;SDS011;5555;59.622;16.556;2022-08-19T14:00:16;6.70;;;4.32;;
11004;SDS011;5555;59.622;16.556;2022-08-19T14:02:43;5.28;;;4.32;;
11004;SDS011;5555;59.622;16.556;2022-08-19T14:05:10;7.60;;;4.18;;
11004;SDS011;5555;59.622;16.556;2022-08-19T14:07:38;7.20;;;4.40;;
11004;SDS011;5555;59.622;16.556;2022-08-19T14:10:05;5.43;;;4.47;;
11004;SDS011;5555;59.622;16.556;2022-08-19T14:12:33;7.00;;;4.72;;
11004;SDS011;5555;59.622;16.556;2022-08-19T14:14:59;6.95;;;4.10;;
11004;SDS011;5555;59.622;16.556;2022-08-19T14:17:25;6.97;;;4.30;;
11004;SDS011;5555;59.622;16.556;2022-08-19T14:20:00;5.28;;;3.92;;
11004;SDS011;5555;59.622;16.556;2022-08-19T14:22:29;5.25;;;4.35;;
11004;SDS011;5555;59.622;16.556;2022-08-19T14:24:58;6.45;;;3.80;;
11004;SDS011;5555;59.622;16.556;2022-08-19T14:27:24;5.90;;;4.63;;
11004;SDS011;5555;59.622;16.556;2022-08-19T14:29:53;5.05;;;4.10;;
11004;SDS011;5555;59.622;16.556;2022-08-19T14:32:20;4.78;;;4.20;;
11004;SDS011;5555;59.622;16.556;2022-08-19T14:34:46;5.82;;;4.55;;
11004;SDS011;5555;59.622;16.556;2022-08-19T14:37:12;10.80;;;4.65;;
11004;SDS011;5555;59.622;16.556;2022-08-19T14:39:39;6.88;;;4.72;;
11004;SDS011;5555;59.622;16.556;2022-08-19T14:42:09;4.70;;;4.15;;